This is the latest recevied weather packets stored in our database for station/object KN6ZYR. If no packets are shown the sender has not sent any weather packets the latest 10 day(s).
| Time | Temp. | Humidity | Pressure | Rain* | Wind** | Luminosity | Snow |
|---|---|---|---|---|---|---|---|
| 1777698349 | 15° C | 27% | 1020.7 hPa | 0 mm | - | 0 W/m² | - |
| 1777698046 | 15° C | 29% | 1020.6 hPa | 0 mm | - | 0 W/m² | - |
| 1777697743 | 15° C | 29% | 1020.7 hPa | 0 mm | - | 0 W/m² | - |
| 1777697440 | 15° C | 27% | 1020.7 hPa | 0 mm | - | 0 W/m² | - |
| 1777697136 | 14.44° C | 30% | 1020.6 hPa | 0 mm | - | 0 W/m² | - |
| 1777696833 | 15° C | 28% | 1020.5 hPa | 0 mm | - | 0 W/m² | - |
| 1777696531 | 15° C | 27% | 1020.5 hPa | 0 mm | - | 0 W/m² | - |
| 1777696227 | 15.56° C | 27% | 1020.4 hPa | 0 mm | - | 0 W/m² | - |
| 1777695922 | 15.56° C | 27% | 1020.4 hPa | 0 mm | - | 0 W/m² | - |
| 1777695620 | 16.11° C | 26% | 1020.2 hPa | 0 mm | - | 0 W/m² | - |
| 1777695318 | 16.67° C | 25% | 1020.2 hPa | 0 mm | - | 0 W/m² | - |
| 1777695014 | 16.67° C | 25% | 1020.2 hPa | 0 mm | - | 0 W/m² | - |
| 1777694710 | 16.67° C | 26% | 1020.1 hPa | 0 mm | - | 0 W/m² | - |
| 1777694408 | 17.22° C | 25% | 1019.7 hPa | 0 mm | - | 0 W/m² | - |
| 1777694103 | 17.22° C | 24% | 1019.8 hPa | 0 mm | - | 0 W/m² | - |
| 1777693801 | 17.78° C | 23% | 1019.8 hPa | 0 mm | - | 0 W/m² | - |
| 1777693499 | 17.78° C | 22% | 1019.8 hPa | 0 mm | - | 0 W/m² | - |
| 1777693198 | 17.78° C | 24% | 1019.7 hPa | 0 mm | - | 0 W/m² | - |
| 1777692895 | 17.22° C | 24% | 1019.5 hPa | 0 mm | - | 0 W/m² | - |
| 1777692591 | 17.22° C | 26% | 1019.3 hPa | 0 mm | - | 0 W/m² | - |
| 1777692288 | 17.78° C | 25% | 1019.1 hPa | 0 mm | - | 0 W/m² | - |
| 1777691985 | 17.78° C | 24% | 1019.1 hPa | 0 mm | - | 0 W/m² | - |
| 1777691683 | 18.89° C | 22% | 1019 hPa | 0 mm | - | 0 W/m² | - |
| 1777691381 | 18.89° C | 22% | 1019 hPa | 0 mm | - | 0 W/m² | - |
| 1777691079 | 18.89° C | 20% | 1018.9 hPa | 0 mm | - | 0 W/m² | - |
* Rain latest hour (hover to see other rain measurements)
** Current wind speed in m/s (hover to see current wind gust speed)